19:32
Airports
History
Links
Donate
Help keep this website running!
PayPal
Bitcoin
Information on this page is community maintained and may be outdated or inaccurate and is intended for reference only or PC simulator navigating!
Always use approved charts for navigating.
CYEL
ELLIOT LAKE MUNI
ELLIOT LAKE MUNI (CYEL)
Elliot Lake, Ontario, Canada
(U)
Lat/Lng:46° 21' 4.5" N / 82° 33' 41" W
46.35125 / -82.561389
Elevation:1087'ft 331mMSL
ID / ICAO:CYEL
Runways:1
Longest:(12-30) 1,384.0m 4,541ft Asphalt
Distance To
Airport ID:
Airport Radio Frequencies
CTAF/UNICOM: 123
Nearby VORs <50NM
Nearby NDBs
Nearby WeatherUpdated 03-28-17 19:00 GMT
Nearby weather at CYZE, GORE BAY MANITOULIN located 32.2 nautical miles from CYEL
Altimeter: 30.11
Visibility: 9.0 statute miles
Wind: 8 knots (260°)
Temp: 7°c 45°f
Humidity: 75.6%

METAR: CYZE 281900Z AUTO 26008KT 9SM CLR 07/03 A3011 RMK SLP205

(Powered by phpweather)
Runway 12 / 30
Dimensions:1384 x 30.5m 4541' x 100'ft
Surface:Asphalt
Edge Lights:Medium intensity
Runway 12 [A]Runway 30 [B]
Heading:112°TH 292°TH
Lat:
Lng:
46° 21' 13"N
82° 34' 11"W
46° 20' 56"N
82° 33' 11"W
ALS:ODALSODALS
Google Map
Nearby Airports
(U) GORE BAY MANITOULIN 32.2 NM
CYZE (WX) S 180°
(U) Thessalon Muni 46.4 NM
PL5 W 267°
(U) MANITOULIN EAST MUNI 48.7 NM
CYEM SE 136°
(U) Killarney 57.2 NM
PT2 ESE 116°
(U) Yacht Haven 61.3 NM
D22 WSW 248°
(U) Drummond Island 61.3 NM
KDRM WSW 247°
(U) Bar River 73.0 NM
PF2 W 273°
VFR Chart
Flight Planning at SkyVector.com